Time;durP1;ratioP1;P1;durP2;ratioP2;P2;SDS_P1;SDS_P2;PMS_P1;PMS_P2;Temp;Humidity;BMP_temperature;BMP_pressure;BME280_temperature;BME280_humidity;BME280_pressure;Samples;Min_cycle;Max_cycle;Signal;HPM_P1;HPM_P2
2022/04/13 00:00:18;;;;;;;3.97;3.35;;;16.00;50.10;;;15.99;44.47;97256.94;5041726;28;20041;-48
2022/04/13 00:02:46;;;;;;;6.22;3.17;;;16.00;50.10;;;16.02;44.26;97256.53;5042577;28;20048;-50
2022/04/13 00:05:14;;;;;;;6.57;3.17;;;16.00;50.10;;;16.02;44.41;97255.72;5041611;28;20041;-49
2022/04/13 00:07:42;;;;;;;6.22;3.00;;;16.00;50.10;;;15.95;44.48;97250.31;5042043;28;20053;-48
2022/04/13 00:10:10;;;;;;;5.07;3.28;;;16.00;50.10;;;15.87;44.75;97255.91;5043150;28;20247;-47
2022/04/13 00:12:38;;;;;;;4.70;3.60;;;16.00;50.10;;;15.92;44.66;97264.16;5057811;28;20239;-48
2022/04/13 00:15:08;;;;;;;4.32;3.38;;;16.00;50.20;;;15.96;44.52;97257.34;5042322;28;20046;-48
2022/04/13 00:17:37;;;;;;;4.85;3.75;;;15.90;50.50;;;15.99;44.83;97264.16;5040737;28;20289;-47
2022/04/13 00:20:07;;;;;;;4.65;3.58;;;15.90;51.00;;;15.98;44.84;97259.84;5042245;28;20042;-48
2022/04/13 00:22:35;;;;;;;5.05;4.03;;;15.80;51.30;;;15.96;45.03;97257.34;5042862;28;20050;-45
2022/04/13 00:25:03;;;;;;;7.15;3.45;;;15.80;51.50;;;15.96;45.25;97261.91;5041107;28;20052;-50
2022/04/13 00:27:31;;;;;;;4.60;3.05;;;15.80;51.70;;;15.96;45.51;97261.91;5041763;28;20049;-48
2022/04/13 00:29:58;;;;;;;5.95;3.58;;;15.80;52.20;;;15.93;45.21;97265.81;5042667;28;20351;-46
2022/04/13 00:32:26;;;;;;;4.72;3.20;;;15.70;51.90;;;15.91;45.06;97263.31;5042592;28;20049;-48
2022/04/13 00:34:57;;;;;;;5.47;3.40;;;15.70;51.60;;;15.92;44.84;97261.47;5041525;28;20069;-45
2022/04/13 00:37:25;;;;;;;5.30;3.20;;;15.70;51.40;;;15.93;44.84;97260.44;5041774;28;20053;-50
2022/04/13 00:39:52;;;;;;;5.28;4.32;;;15.70;51.40;;;15.92;44.91;97262.31;5042114;28;20053;-47
2022/04/13 00:42:20;;;;;;;5.05;3.72;;;15.70;51.30;;;15.93;44.71;97271.19;5042005;28;20041;-47
2022/04/13 00:44:48;;;;;;;5.97;3.65;;;15.80;51.10;;;15.90;44.73;97269.75;5042219;28;20061;-48
2022/04/13 00:47:18;;;;;;;7.35;3.22;;;15.70;51.10;;;15.76;45.12;97278.81;5041161;28;20049;-49
2022/04/13 00:49:46;;;;;;;6.13;3.45;;;15.50;51.90;;;15.70;45.29;97280.41;5041688;28;20075;-48
2022/04/13 00:52:15;;;;;;;4.68;3.28;;;15.50;52.20;;;15.71;45.23;97276.69;5041980;28;20055;-45
2022/04/13 00:54:47;;;;;;;5.85;4.47;;;15.50;52.20;;;15.71;45.24;97279.38;5040831;28;20374;-47
2022/04/13 00:57:18;;;;;;;6.07;3.50;;;15.50;52.20;;;15.70;45.31;97280.41;5040418;28;20221;-46
2022/04/13 00:59:51;;;;;;;7.28;3.38;;;15.50;52.40;;;15.67;45.37;97282.66;5041717;28;20041;-46
2022/04/13 01:02:21;;;;;;;4.38;3.28;;;15.40;52.60;;;15.63;45.77;97279.56;5040838;28;20045;-47
2022/04/13 01:04:51;;;;;;;5.93;3.20;;;15.30;53.00;;;15.61;45.86;97286.16;5041608;28;20056;-47
2022/04/13 01:07:19;;;;;;;3.33;2.63;;;15.30;53.30;;;15.56;46.03;97284.88;5041733;28;20041;-47
2022/04/13 01:09:49;;;;;;;5.30;3.10;;;15.30;53.50;;;15.50;46.12;97284.88;5041721;28;20051;-46
2022/04/13 01:12:17;;;;;;;5.35;3.28;;;15.20;54.00;;;15.46;46.25;97284.44;5040772;28;20056;-46
2022/04/13 01:14:45;;;;;;;4.97;3.20;;;15.10;53.90;;;15.41;46.31;97283.41;5041721;28;20049;-46
2022/04/13 01:17:12;;;;;;;5.78;3.00;;;15.00;53.90;;;15.34;46.51;97294.09;5041187;28;20053;-51
2022/04/13 01:19:40;;;;;;;4.38;3.03;;;15.00;54.50;;;15.29;46.62;97293.88;5041682;28;20060;-48
2022/04/13 01:22:22;;;;;;;4.65;4.13;;;14.90;54.60;;;15.19;47.04;97294.25;5040749;28;20239;-47
2022/04/13 01:24:51;;;;;;;4.15;2.92;;;14.80;56.60;;;15.11;47.17;97295.22;5041643;28;20059;-46
2022/04/13 01:27:18;;;;;;;4.28;2.90;;;14.60;55.50;;;15.05;47.29;97298.72;5041278;28;20056;-46
2022/04/13 01:29:49;;;;;;;5.60;3.60;;;14.60;55.80;;;15.00;47.52;97298.47;5041479;28;20068;-46
2022/04/13 01:32:17;;;;;;;5.53;2.97;;;14.60;56.00;;;14.95;47.51;97295.56;5041472;28;20049;-45
2022/04/13 01:34:52;;;;;;;5.00;3.25;;;14.50;56.30;;;14.89;47.81;97301.72;5046022;28;20244;-48
2022/04/13 01:37:22;;;;;;;5.38;3.25;;;14.50;57.20;;;14.85;48.00;97305.78;5045080;28;20051;-47
2022/04/13 01:39:50;;;;;;;3.83;2.78;;;14.40;56.60;;;14.81;48.02;97313.44;5044092;28;20347;-49
2022/04/13 01:42:18;;;;;;;4.22;3.00;;;14.40;57.00;;;14.76;48.05;97303.28;5045357;28;20045;-47
2022/04/13 01:44:48;;;;;;;5.97;3.22;;;14.30;56.70;;;14.75;48.14;97309.69;5045706;28;20048;-45
2022/04/13 01:47:14;;;;;;;5.78;3.20;;;14.40;56.70;;;14.73;48.12;97311.72;5043983;28;20029;-47
2022/04/13 01:49:43;;;;;;;4.95;3.40;;;14.40;56.70;;;14.72;48.25;97311.91;5045242;28;20148;-47
2022/04/13 01:52:12;;;;;;;4.88;3.65;;;14.30;56.80;;;14.68;48.29;97302.63;5043960;28;20361;-47
2022/04/13 01:54:40;;;;;;;5.43;3.38;;;14.30;57.00;;;14.65;48.41;97313.72;5044959;28;20045;-47
2022/04/13 01:57:07;;;;;;;4.50;2.90;;;14.20;57.00;;;14.63;48.39;97313.06;5044414;28;20074;-45
2022/04/13 01:59:35;;;;;;;4.75;3.35;;;14.20;56.80;;;14.61;48.34;97317.81;5044734;28;20047;-48
2022/04/13 02:02:04;;;;;;;4.88;3.75;;;14.20;56.90;;;14.60;48.44;97326.84;5044932;28;20049;-46
2022/04/13 02:04:34;;;;;;;4.10;3.05;;;14.20;57.10;;;14.54;48.63;97333.81;5044981;28;20041;-45
2022/04/13 02:07:03;;;;;;;4.15;2.78;;;14.20;57.50;;;14.50;48.72;97333.34;5043366;28;20045;-46
2022/04/13 02:09:31;;;;;;;5.28;3.20;;;14.10;57.70;;;14.48;48.70;97327.38;5044710;28;20046;-45
2022/04/13 02:11:59;;;;;;;4.72;3.22;;;14.10;57.60;;;14.46;48.94;97334.78;5044784;28;20351;-46
2022/04/13 02:14:27;;;;;;;3.22;2.90;;;14.10;57.90;;;14.43;49.06;97329.78;5044726;28;20049;-45
2022/04/13 02:16:54;;;;;;;3.28;2.90;;;14.10;58.00;;;14.40;49.08;97338.19;5044062;28;20059;-47
2022/04/13 02:19:22;;;;;;;3.97;2.92;;;14.00;58.20;;;14.33;49.45;97332.78;5044467;28;20047;-47
2022/04/13 02:21:50;;;;;;;5.30;3.55;;;13.90;58.90;;;14.27;49.56;97333.56;5045309;28;20050;-48
2022/04/13 02:24:19;;;;;;;4.63;2.70;;;13.80;59.10;;;14.20;49.71;97329.19;5044303;28;20052;-50
2022/04/13 02:26:47;;;;;;;3.47;2.47;;;13.70;59.60;;;14.13;49.79;97329.09;5043983;28;20045;-48
2022/04/13 02:29:15;;;;;;;4.25;3.42;;;13.70;59.70;;;14.11;50.08;97328.47;5042989;28;20058;-46
2022/04/13 02:31:43;;;;;;;5.15;2.90;;;13.70;59.70;;;14.09;49.92;97335.84;5043120;28;20059;-45
2022/04/13 02:34:11;;;;;;;5.13;3.15;;;13.70;59.60;;;14.04;50.28;97327.59;5044758;28;20061;-46
2022/04/13 02:36:38;;;;;;;5.90;4.97;;;13.60;59.80;;;14.00;50.11;97327.13;5043786;28;20079;-47
2022/04/13 02:39:06;;;;;;;5.43;4.85;;;13.50;59.90;;;13.96;50.63;97324.00;5044562;28;20054;-46
2022/04/13 02:41:34;;;;;;;4.03;3.05;;;13.50;60.30;;;13.90;50.47;97324.78;5044014;28;20221;-46
2022/04/13 02:44:02;;;;;;;5.95;3.50;;;13.40;60.50;;;13.86;50.68;97323.50;5043732;28;20076;-45
2022/04/13 02:46:30;;;;;;;5.38;3.55;;;13.40;60.60;;;13.83;50.83;97325.72;5043589;28;20053;-46
2022/04/13 02:48:58;;;;;;;5.13;3.60;;;13.30;61.00;;;13.78;51.02;97326.28;5043714;28;20055;-48
2022/04/13 02:51:26;;;;;;;4.50;3.28;;;13.30;61.20;;;13.78;51.06;97319.09;5043921;28;20067;-46
2022/04/13 02:53:54;;;;;;;4.75;2.95;;;13.30;61.20;;;13.77;51.03;97332.66;5042682;28;20053;-45
2022/04/13 02:56:22;;;;;;;6.60;3.97;;;13.30;61.20;;;13.73;51.02;97324.19;5043428;28;20251;-45
2022/04/13 02:58:50;;;;;;;5.70;3.60;;;13.30;61.20;;;13.70;51.02;97331.75;5043936;28;20234;-47
2022/04/13 03:01:17;;;;;;;4.20;3.28;;;13.20;61.50;;;13.67;51.33;97332.13;5043805;28;20055;-45
2022/04/13 03:03:45;;;;;;;7.00;3.70;;;13.20;61.50;;;13.64;51.40;97330.66;5042570;28;20049;-46
2022/04/13 03:06:13;;;;;;;5.40;3.53;;;13.20;61.90;;;13.62;51.38;97332.69;5043088;28;20055;-46
2022/04/13 03:08:42;;;;;;;5.32;4.15;;;13.20;61.80;;;13.58;51.34;97329.56;5043481;28;20204;-48
2022/04/13 03:11:10;;;;;;;10.10;4.03;;;13.10;61.70;;;13.53;51.67;97334.66;5043665;28;20053;-46
2022/04/13 03:13:38;;;;;;;8.70;4.30;;;13.00;62.20;;;13.48;51.54;97333.56;5043735;28;20049;-46
2022/04/13 03:16:06;;;;;;;4.82;3.67;;;13.00;62.50;;;13.44;51.79;97335.78;5042928;28;20340;-46
2022/04/13 03:18:34;;;;;;;6.22;4.28;;;13.00;63.70;;;13.40;51.82;97331.81;5043648;28;20056;-46
2022/04/13 03:21:02;;;;;;;6.10;3.88;;;12.90;62.90;;;13.37;51.89;97332.19;5043407;28;20045;-47
2022/04/13 03:23:30;;;;;;;8.13;4.25;;;12.90;63.00;;;13.36;51.99;97341.22;5043355;28;20050;-46
2022/04/13 03:25:57;;;;;;;4.55;3.40;;;12.90;63.20;;;13.37;52.26;97335.66;5043230;28;20411;-48
2022/04/13 03:28:25;;;;;;;4.03;3.40;;;13.00;62.90;;;13.38;52.28;97332.00;5043370;28;20052;-47
2022/04/13 03:30:53;;;;;;;8.57;3.88;;;13.00;63.00;;;13.36;52.20;97335.88;5043403;28;20053;-44
2022/04/13 03:33:21;;;;;;;4.22;3.40;;;12.90;63.20;;;13.35;52.34;97334.22;5043190;28;20045;-47
2022/04/13 03:35:49;;;;;;;4.28;3.88;;;12.90;63.20;;;13.34;52.47;97328.03;5042707;28;20045;-47
2022/04/13 03:38:17;;;;;;;4.85;3.22;;;13.00;63.10;;;13.36;52.24;97326.00;5042054;28;20251;-47
2022/04/13 03:40:45;;;;;;;5.22;3.50;;;13.00;63.00;;;13.34;52.69;97330.72;5042800;28;20041;-45
2022/04/13 03:43:13;;;;;;;7.60;4.65;;;12.90;63.20;;;13.35;52.42;97339.56;5043170;28;20041;-47
2022/04/13 03:45:40;;;;;;;5.45;4.45;;;12.90;63.10;;;13.32;52.51;97329.25;5042016;28;20049;-45
2022/04/13 03:48:08;;;;;;;5.03;3.63;;;12.90;63.10;;;13.31;52.26;97336.41;5041715;28;20242;-45
2022/04/13 03:50:36;;;;;;;6.63;4.25;;;12.90;63.20;;;13.30;52.46;97337.44;5042864;28;20049;-45
2022/04/13 03:53:04;;;;;;;6.90;4.30;;;12.90;63.20;;;13.28;52.57;97336.78;5042881;28;20245;-48
2022/04/13 03:55:32;;;;;;;6.47;4.25;;;12.90;63.50;;;13.25;52.82;97334.47;5040967;28;20132;-45
2022/04/13 03:58:00;;;;;;;8.05;4.75;;;12.90;63.50;;;13.26;52.83;97336.13;5042425;28;20049;-45
2022/04/13 04:00:28;;;;;;;6.85;4.15;;;12.90;63.50;;;13.23;52.71;97344.50;5042666;28;20045;-46
2022/04/13 04:02:56;;;;;;;7.35;4.63;;;12.80;63.40;;;13.22;52.75;97340.16;5042450;28;20045;-46
2022/04/13 04:05:25;;;;;;;4.45;4.05;;;12.80;63.40;;;13.21;52.67;97341.19;5042369;28;20041;-45
2022/04/13 04:07:53;;;;;;;6.20;4.45;;;12.80;63.50;;;13.20;52.80;97343.06;5041444;28;20072;-45
2022/04/13 04:10:20;;;;;;;10.70;6.18;;;12.80;63.10;;;13.20;52.59;97344.88;5042573;28;20055;-45
2022/04/13 04:12:48;;;;;;;10.70;5.85;;;12.80;63.30;;;13.18;53.06;97353.09;5057767;28;20059;-45
2022/04/13 04:15:17;;;;;;;12.07;7.22;;;12.80;63.50;;;13.17;52.57;97345.25;5042452;28;20060;-45
2022/04/13 04:17:44;;;;;;;15.48;7.80;;;12.80;63.50;;;13.15;52.72;97348.13;5042466;28;20053;-46
2022/04/13 04:20:13;;;;;;;13.30;6.60;;;12.70;63.30;;;13.12;52.89;97348.47;5042399;28;20055;-47
2022/04/13 04:22:41;;;;;;;11.93;5.22;;;12.70;63.60;;;13.10;53.03;97349.69;5042366;28;20049;-50
2022/04/13 04:25:09;;;;;;;10.38;5.93;;;12.70;63.90;;;13.07;52.81;97348.22;5042412;28;20056;-46
2022/04/13 04:27:37;;;;;;;9.40;5.15;;;12.70;64.00;;;13.06;53.05;97354.56;5041734;28;20105;-45
2022/04/13 04:30:06;;;;;;;8.40;4.70;;;12.60;63.80;;;13.03;52.97;97343.41;5042048;28;20065;-45
2022/04/13 04:32:34;;;;;;;8.25;5.03;;;12.60;63.70;;;13.00;53.60;97348.09;5057255;28;20053;-47
2022/04/13 04:35:08;;;;;;;10.43;7.15;;;12.50;64.00;;;12.98;53.14;97350.13;5024852;28;20051;-46
2022/04/13 04:37:35;;;;;;;9.93;8.45;;;12.60;64.10;;;12.99;53.11;97354.47;5040740;28;20184;-50
2022/04/13 04:40:05;;;;;;;10.43;7.90;;;12.60;63.90;;;12.96;53.06;97357.50;5042069;28;20227;-47
2022/04/13 04:42:48;;;;;;;8.40;6.28;;;12.50;64.10;;;12.92;53.01;97356.22;5041830;28;20045;-45
2022/04/13 04:45:19;;;;;;;12.15;7.68;;;12.50;64.80;;;12.93;53.38;97351.69;5040954;28;20045;-45
2022/04/13 04:47:49;;;;;;;10.90;5.47;;;12.50;64.20;;;12.92;53.34;97347.38;5040745;28;20041;-46
2022/04/13 04:50:19;;;;;;;10.60;5.38;;;12.50;64.10;;;12.86;52.99;97351.59;5042035;28;20068;-45
2022/04/13 04:52:48;;;;;;;6.63;3.85;;;12.40;64.30;;;12.85;52.98;97349.94;5041985;28;20056;-46
2022/04/13 04:55:18;;;;;;;13.00;4.70;;;12.40;64.50;;;12.86;53.52;97356.13;5041859;28;20225;-47
2022/04/13 04:57:47;;;;;;;9.20;5.05;;;12.40;64.40;;;12.86;53.61;97356.94;5041920;28;20378;-48
2022/04/13 05:00:18;;;;;;;9.23;6.13;;;12.40;64.30;;;12.86;53.17;97356.13;5040827;28;20315;-46
2022/04/13 05:02:48;;;;;;;8.57;6.00;;;12.40;64.10;;;12.86;53.46;97361.47;5041838;28;20046;-47
2022/04/13 05:05:17;;;;;;;8.68;5.82;;;12.50;64.10;;;12.87;52.96;97358.63;5042255;28;20049;-48
2022/04/13 05:07:46;;;;;;;10.00;5.15;;;12.50;63.70;;;12.90;53.15;97358.22;5044825;28;20240;-47
2022/04/13 05:10:14;;;;;;;6.88;5.93;;;12.50;63.30;;;12.92;53.11;97355.38;5045894;28;20053;-45
2022/04/13 05:12:56;;;;;;;7.88;6.63;;;12.60;63.30;;;12.95;53.07;97368.38;5045980;28;20242;-46
2022/04/13 05:15:25;;;;;;;11.35;9.40;;;12.60;63.30;;;12.97;53.06;97369.03;5045630;28;20045;-46
2022/04/13 05:17:53;;;;;;;11.48;8.82;;;12.60;63.30;;;12.97;52.99;97359.16;5046247;28;20242;-48
2022/04/13 05:20:21;;;;;;;6.47;5.28;;;12.70;63.10;;;13.02;53.10;97363.13;5045542;28;20044;-51
2022/04/13 05:22:49;;;;;;;10.35;6.97;;;12.70;63.20;;;13.02;53.20;97363.97;5045624;28;20476;-48
2022/04/13 05:25:17;;;;;;;12.00;7.75;;;12.70;63.00;;;13.04;53.35;97364.59;5044287;28;20283;-49
2022/04/13 05:27:45;;;;;;;10.90;7.35;;;12.80;63.10;;;13.07;53.01;97366.09;5045566;28;20053;-47
2022/04/13 05:30:16;;;;;;;13.43;7.22;;;12.80;63.00;;;13.09;53.55;97367.56;5045518;28;20140;-46
2022/04/13 05:32:53;;;;;;;11.65;8.27;;;12.80;63.00;;;13.14;52.93;97372.34;5045424;28;20235;-45
2022/04/13 05:35:21;;;;;;;21.98;12.05;;;12.90;62.70;;;13.17;52.82;97375.47;5045209;28;20058;-48
2022/04/13 05:37:48;;;;;;;9.98;7.03;;;13.00;62.30;;;13.22;52.79;97380.25;5044037;28;20053;-48
2022/04/13 05:40:16;;;;;;;8.75;5.68;;;13.00;62.20;;;13.24;52.93;97386.28;5045484;28;20049;-46
2022/04/13 05:42:44;;;;;;;8.90;5.90;;;13.00;62.20;;;13.27;52.90;97390.44;5045358;28;20056;-51
2022/04/13 05:45:14;;;;;;;9.88;5.47;;;13.10;62.10;;;13.31;53.00;97389.06;5045496;28;20049;-50
2022/04/13 05:47:42;;;;;;;5.53;4.55;;;13.10;62.40;;;13.34;53.04;97389.53;5043994;28;20045;-51
2022/04/13 05:50:12;;;;;;;7.50;3.50;;;13.20;62.20;;;13.37;52.83;97393.66;5045642;28;20049;-47
2022/04/13 05:52:42;;;;;;;5.65;3.40;;;13.20;61.90;;;13.41;52.70;97391.47;5044242;28;20339;-48
2022/04/13 05:55:11;;;;;;;8.68;3.45;;;13.20;61.60;;;13.44;52.44;97391.09;5044111;28;20051;-49
2022/04/13 05:57:39;;;;;;;8.90;4.43;;;13.30;61.50;;;13.50;52.10;97398.38;5043574;28;20239;-46
2022/04/13 06:00:10;;;;;;;7.90;4.22;;;13.30;60.70;;;13.56;51.62;97400.31;5027437;28;20055;-47
2022/04/13 06:02:41;;;;;;;9.32;4.18;;;13.40;59.80;;;13.63;51.36;97406.56;5043901;28;20268;-46
2022/04/13 06:05:10;;;;;;;7.55;4.13;;;13.50;59.60;;;13.69;51.43;97403.16;5044990;28;20055;-49
2022/04/13 06:07:38;;;;;;;7.00;4.15;;;13.60;59.40;;;13.74;51.97;97408.75;5043237;28;20071;-46
2022/04/13 06:10:07;;;;;;;6.03;3.63;;;13.60;59.80;;;13.79;51.85;97411.69;5044833;28;20052;-49
2022/04/13 06:12:35;;;;;;;4.70;2.90;;;13.70;59.70;;;13.87;51.40;97417.97;5043746;28;20055;-46
2022/04/13 06:15:09;;;;;;;4.38;2.30;;;13.70;59.10;;;13.91;50.73;97414.72;5044669;28;20056;-47
2022/04/13 06:17:37;;;;;;;5.70;2.83;;;13.90;58.50;;;13.99;50.65;97414.59;5044367;28;20055;-48
2022/04/13 06:20:08;;;;;;;9.77;2.75;;;13.90;58.10;;;14.06;50.25;97412.03;5044039;28;20343;-47
2022/04/13 06:22:41;;;;;;;3.75;2.38;;;14.00;57.40;;;14.14;50.27;97419.09;5044810;28;20056;-46
2022/04/13 06:25:12;;;;;;;3.33;2.00;;;14.10;57.40;;;14.18;49.86;97418.53;5044334;28;20048;-49
2022/04/13 06:27:40;;;;;;;6.35;2.53;;;14.20;56.70;;;14.26;49.96;97422.13;5042796;28;20045;-46
2022/04/13 06:30:09;;;;;;;6.30;2.95;;;14.30;56.80;;;14.34;49.82;97427.34;5044578;28;20053;-46
2022/04/13 06:32:40;;;;;;;4.20;2.50;;;14.30;56.60;;;14.41;49.69;97422.06;5044534;28;20051;-50
2022/04/13 06:35:15;;;;;;;3.97;2.58;;;14.40;56.70;;;14.46;49.53;97419.63;5044856;28;20055;-50
2022/04/13 06:37:46;;;;;;;3.92;2.30;;;14.50;56.30;;;14.53;49.63;97426.72;5044125;28;20339;-50
2022/04/13 06:40:14;;;;;;;4.70;2.60;;;14.60;56.20;;;14.60;49.38;97425.97;5044268;28;20247;-47
2022/04/13 06:42:43;;;;;;;7.75;2.47;;;14.70;56.00;;;14.69;49.31;97438.22;5043879;28;20053;-47
2022/04/13 06:45:14;;;;;;;5.03;2.72;;;14.80;55.80;;;14.75;49.39;97435.63;5044196;28;20041;-48
2022/04/13 06:47:42;;;;;;;6.53;2.55;;;14.80;55.60;;;14.82;49.24;97438.34;5041803;28;20041;-47
2022/04/13 06:50:11;;;;;;;5.90;2.50;;;14.90;55.90;;;14.89;49.18;97439.22;5043870;28;20044;-47
2022/04/13 06:52:40;;;;;;;7.70;2.80;;;15.00;55.70;;;14.96;49.14;97453.50;5044156;28;20060;-46
2022/04/13 06:55:11;;;;;;;5.95;2.85;;;15.10;55.70;;;15.03;49.12;97442.03;5044316;28;20067;-48
2022/04/13 06:57:40;;;;;;;4.97;2.47;;;15.10;55.40;;;15.09;49.05;97451.97;5043726;28;20057;-46
2022/04/13 07:00:10;;;;;;;7.18;2.58;;;15.20;55.50;;;15.15;49.30;97457.34;5043867;28;20045;-46
2022/04/13 07:02:40;;;;;;;4.40;2.75;;;15.30;55.80;;;15.22;49.32;97454.75;5044365;28;20047;-46
2022/04/13 07:05:29;;;;;;;4.40;2.70;;;15.30;55.90;;;15.26;49.36;97456.00;5043383;28;20060;-48
2022/04/13 07:07:59;;;;;;;6.25;2.53;;;15.40;55.80;;;15.31;49.24;97456.22;5043874;28;20412;-46
2022/04/13 07:10:28;;;;;;;4.57;3.00;;;15.40;55.90;;;15.37;49.12;97451.94;5043657;28;20213;-46
2022/04/13 07:12:56;;;;;;;3.30;2.40;;;15.40;55.70;;;15.40;49.18;97461.47;5043669;28;20049;-49
2022/04/13 07:15:26;;;;;;;2.70;2.40;;;15.50;55.90;;;15.44;49.17;97455.50;5043378;28;20048;-49
2022/04/13 07:17:54;;;;;;;8.18;3.17;;;15.50;56.00;;;15.48;49.09;97454.06;5042244;28;20347;-46
2022/04/13 07:20:22;;;;;;;5.68;3.03;;;15.60;55.60;;;15.52;48.98;97455.34;5043518;28;20052;-47
2022/04/13 07:22:53;;;;;;;5.50;2.40;;;15.60;55.50;;;15.58;48.95;97452.91;5043336;28;20054;-46
2022/04/13 07:25:22;;;;;;;6.15;2.95;;;15.70;55.70;;;15.62;49.31;97462.22;5043682;28;20060;-47
2022/04/13 07:27:50;;;;;;;6.95;4.30;;;15.70;55.90;;;15.66;50.41;97461.59;5043219;28;20259;-46
2022/04/13 07:30:18;;;;;;;9.20;4.53;;;15.80;57.60;;;15.72;51.12;97465.34;5040871;28;20270;-47
2022/04/13 07:32:51;;;;;;;8.73;3.75;;;15.80;59.00;;;15.76;51.38;97469.34;5043249;28;20063;-48
2022/04/13 07:35:19;;;;;;;8.18;4.55;;;15.80;59.20;;;15.82;51.37;97467.72;5043713;28;20080;-48
2022/04/13 07:37:47;;;;;;;8.88;4.43;;;15.90;59.10;;;15.85;51.36;97473.50;5042994;28;20340;-46
2022/04/13 07:40:17;;;;;;;10.23;4.03;;;15.90;59.00;;;15.87;51.42;97470.63;5043052;28;20052;-49
2022/04/13 07:42:45;;;;;;;8.48;4.63;;;16.00;59.20;;;15.92;51.60;97476.25;5043216;28;20045;-49
2022/04/13 07:45:13;;;;;;;7.28;4.07;;;16.00;59.40;;;15.96;51.87;97482.88;5042896;28;20037;-49
2022/04/13 07:47:42;;;;;;;10.68;5.10;;;16.10;60.00;;;16.02;51.84;97483.94;5041924;28;20243;-49
2022/04/13 07:50:14;;;;;;;5.88;3.97;;;16.10;60.00;;;16.04;51.01;97488.06;5041697;28;20056;-50
2022/04/13 07:52:42;;;;;;;3.65;2.67;;;16.20;58.80;;;16.08;50.34;97485.81;5042002;28;20055;-47
2022/04/13 07:55:11;;;;;;;4.88;3.15;;;16.20;57.40;;;16.13;49.60;97484.19;5042910;28;20053;-49
2022/04/13 07:57:40;;;;;;;8.52;3.10;;;16.20;56.60;;;16.16;49.17;97490.19;5042438;28;20053;-46
2022/04/13 08:00:10;;;;;;;6.25;2.67;;;16.30;56.10;;;16.14;49.26;97493.88;5041601;28;20172;-46
2022/04/13 08:02:43;;;;;;;6.80;3.15;;;16.30;55.50;;;16.17;48.74;97491.81;5043312;28;20060;-46
2022/04/13 08:05:13;;;;;;;4.65;2.70;;;16.40;55.20;;;16.23;49.25;97488.34;5042883;28;20056;-48
2022/04/13 08:07:42;;;;;;;4.20;2.80;;;16.40;55.60;;;16.28;48.71;97491.25;5042436;28;20067;-47
2022/04/13 08:10:12;;;;;;;4.35;2.65;;;16.40;55.00;;;16.30;48.17;97495.41;5042654;28;20079;-48
2022/04/13 08:12:40;;;;;;;6.85;2.53;;;16.40;54.50;;;16.36;48.29;97493.75;5042487;28;20055;-47
2022/04/13 08:15:10;;;;;;;4.70;2.40;;;16.50;54.30;;;16.36;48.77;97491.06;5042527;28;20045;-46
2022/04/13 08:17:39;;;;;;;4.55;2.83;;;16.60;54.50;;;16.41;48.53;97493.97;5042106;28;20352;-46
2022/04/13 08:20:11;;;;;;;3.97;2.97;;;16.70;54.70;;;16.45;48.64;97497.09;5041538;28;20049;-45
2022/04/13 08:22:41;;;;;;;5.32;3.10;;;16.70;55.00;;;16.45;48.78;97502.47;5042268;28;20242;-47
2022/04/13 08:25:10;;;;;;;6.97;3.00;;;16.70;55.10;;;16.45;47.37;97502.47;5042397;28;20049;-47
2022/04/13 08:27:43;;;;;;;;;;;16.70;52.80;;;16.47;48.03;97505.78;5042512;28;20045;-46
2022/04/13 08:30:12;;;;;;;4.75;3.00;;;16.70;52.40;;;16.47;44.80;97498.53;5042071;28;19916;-49
2022/04/13 08:32:41;;;;;;;5.47;2.85;;;16.70;48.80;;;16.54;45.91;97504.78;5042215;28;20049;-47
2022/04/13 08:35:09;;;;;;;5.63;2.97;;;16.80;51.30;;;16.62;46.67;97501.06;5042102;28;20059;-47
2022/04/13 08:37:39;;;;;;;7.00;3.28;;;16.80;52.20;;;16.68;45.38;97499.44;5041716;28;20055;-48
2022/04/13 08:40:11;;;;;;;10.13;3.72;;;16.90;50.30;;;16.70;45.74;97503.56;5042011;28;20048;-49
2022/04/13 08:43:06;;;;;;;7.60;3.20;;;16.90;51.10;;;16.75;46.36;97513.72;5041574;28;20044;-47
2022/04/13 08:46:11;;;;;;;5.13;2.70;;;16.90;51.60;;;16.76;44.93;97509.16;5041622;28;20047;-48
2022/04/13 08:48:44;;;;;;;5.32;2.22;;;17.00;51.70;;;16.77;44.38;97508.97;5040912;28;20057;-50
2022/04/13 08:51:17;;;;;;;4.60;2.47;;;16.90;49.10;;;16.85;45.23;97516.88;5040866;28;20056;-46
2022/04/13 08:53:54;;;;;;;5.63;2.33;;;17.00;50.40;;;16.89;42.80;97509.22;5042035;28;20087;-47
2022/04/13 08:56:23;;;;;;;2.70;1.75;;;17.10;45.50;;;16.91;42.03;97513.34;5040361;28;20050;-47
2022/04/13 08:59:16;;;;;;;3.67;2.00;;;17.10;45.70;;;16.95;42.08;97510.28;5040652;28;20051;-46
2022/04/13 09:02:11;;;;;;;4.47;2.08;;;17.20;45.20;;;16.92;41.76;97511.50;5041860;28;20054;-46
2022/04/13 09:04:45;;;;;;;6.05;2.30;;;17.20;44.40;;;16.97;41.52;97513.59;5040918;28;20049;-51
2022/04/13 09:07:13;;;;;;;;;;;17.20;44.60;;;16.95;40.50;97521.03;5040901;28;20046;-46
2022/04/13 09:09:47;;;;;;;2.97;1.75;;;17.20;43.60;;;17.07;41.86;97516.69;5041779;28;19921;-45
2022/04/13 09:12:17;;;;;;;4.18;2.08;;;17.20;45.20;;;17.01;39.47;97514.81;5040828;28;20055;-48
2022/04/13 09:14:45;;;;;;;5.20;2.20;;;17.30;41.20;;;17.07;39.75;97519.38;5040775;28;20055;-47
2022/04/13 09:17:13;;;;;;;2.80;1.60;;;17.40;42.90;;;17.09;39.08;97515.44;5039971;28;20270;-48
2022/04/13 09:19:43;;;;;;;4.18;1.88;;;17.40;41.50;;;17.15;39.83;97512.97;5041891;28;20046;-46
2022/04/13 09:22:12;;;;;;;4.63;1.70;;;17.40;43.10;;;17.21;39.82;97512.94;5041725;28;20242;-45
2022/04/13 09:24:41;;;;;;;3.58;1.60;;;17.40;42.90;;;17.15;37.05;97513.78;5040445;28;20053;-48
2022/04/13 09:27:10;;;;;;;3.97;1.98;;;17.50;39.00;;;17.18;36.61;97515.25;5040276;28;20108;-47
2022/04/13 09:29:39;;;;;;;3.83;1.70;;;17.60;37.70;;;17.18;37.15;97515.25;5040616;28;20045;-47
2022/04/13 09:32:08;;;;;;;4.25;2.00;;;17.60;39.40;;;17.21;38.11;97512.94;5041024;28;20065;-46
2022/04/13 09:34:36;;;;;;;6.50;2.08;;;17.60;40.10;;;17.30;38.95;97510.91;5041656;28;20045;-47
2022/04/13 09:37:04;;;;;;;4.47;2.20;;;17.70;41.60;;;17.36;39.60;97512.75;5041101;28;20061;-47
2022/04/13 09:39:33;;;;;;;6.30;2.38;;;17.70;42.40;;;17.38;39.16;97513.38;5041399;28;20347;-48
2022/04/13 09:42:03;;;;;;;6.80;2.00;;;17.80;41.20;;;17.48;39.67;97513.78;5041404;28;20042;-46
2022/04/13 09:44:32;;;;;;;5.05;2.60;;;17.90;42.40;;;17.48;38.82;97519.16;5042352;28;20067;-50
2022/04/13 09:47:08;;;;;;;3.80;2.30;;;17.90;40.70;;;17.53;38.74;97515.84;5040048;28;20244;-46
2022/04/13 09:49:53;;;;;;;5.95;1.80;;;17.90;40.80;;;17.62;39.10;97516.44;5041944;28;20049;-48
2022/04/13 09:52:40;;;;;;;3.83;2.33;;;18.00;41.90;;;17.63;39.02;97518.94;5041342;28;20052;-45
2022/04/13 09:55:09;;;;;;;5.07;2.08;;;18.00;41.10;;;17.66;39.30;97526.63;5044991;28;20053;-46
2022/04/13 09:57:38;;;;;;;4.95;2.08;;;18.00;42.50;;;17.69;39.31;97514.59;5045498;28;20369;-47
2022/04/13 10:00:08;;;;;;;10.50;2.60;;;18.00;42.20;;;17.71;39.38;97516.03;5045067;28;20056;-45
2022/04/13 10:02:44;;;;;;;7.75;1.90;;;18.00;42.50;;;17.75;39.74;97505.66;5045037;28;20056;-48
2022/04/13 10:05:18;;;;;;;4.85;2.17;;;18.00;43.10;;;17.79;39.00;97506.91;5045057;28;20045;-47
2022/04/13 10:08:11;;;;;;;5.75;2.58;;;18.00;42.30;;;17.84;39.77;97509.00;5045405;28;20067;-49
2022/04/13 10:10:45;;;;;;;6.32;2.13;;;18.10;43.10;;;17.86;39.57;97512.31;5044923;28;20255;-45
2022/04/13 10:13:36;;;;;;;5.28;2.60;;;18.10;42.70;;;17.89;39.65;97503.78;5044804;28;20045;-45
2022/04/13 10:16:07;;;;;;;5.75;2.92;;;18.10;42.50;;;17.95;39.78;97508.38;5044151;28;20053;-45
2022/04/13 10:18:55;;;;;;;4.50;2.92;;;18.20;43.40;;;17.98;39.50;97504.41;5045290;28;20058;-46
2022/04/13 10:21:46;;;;;;;6.10;2.75;;;18.30;41.80;;;17.99;39.67;97501.50;5044263;28;20057;-47
2022/04/13 10:24:26;;;;;;;3.72;2.60;;;18.30;43.00;;;18.08;40.21;97507.47;5045292;28;20052;-46
2022/04/13 10:27:03;;;;;;;4.95;2.40;;;18.40;43.70;;;18.12;40.74;97505.19;5043988;28;20049;-47
2022/04/13 10:29:33;;;;;;;6.63;3.00;;;18.40;44.20;;;18.15;40.53;97496.69;5044616;28;20047;-48